Flight Track Log - Related Links

Times and Time Zones

All times are in EDT time to prevent confusion due to time zone crossing. See the UAL407 flight status page for this flight to view local times or setup timezone preferences in your user account.

Time Position Orientation Groundspeed Altitude Reporting Facility
EDT Latitude Longitude Course Direction KTS MPH feet Rate Location/Type
Thu 06:06:57 PM 42.7278 -73.8081 283° West 150 173 1,300  Level Boston Center
Thu 06:07:27 PM 42.7047 -73.8075 179° South 156 180 2,100 1,648 Climbing Boston Center
Thu 06:08:28 PM 42.7083 -73.8697 275° West 218 251 3,800 2,300 Climbing Boston Center
Thu 06:09:00 PM 42.8017 -74.1595 284° West  Level FlightAware Approximate
Thu 06:09:27 PM 42.7594 -73.9361 316° Northwest 284 327 6,700  Level Boston Center
Thu 06:10:00 PM 42.8239 -74.2812 284° West  Level FlightAware Approximate
Thu 06:10:27 PM 42.8147 -74.0081 316° Northwest 284 327 10,200  Level Boston Center
Thu 06:11:00 PM 42.8450 -74.4033 283° West  Level FlightAware Approximate
Thu 06:11:27 PM 42.8761 -74.0861 317° Northwest 297 342 11,800  Level Boston Center
Thu 06:12:00 PM 42.8654 -74.5256 283° West  Level FlightAware Approximate
Thu 06:12:27 PM 42.9436 -74.1731 317° Northwest 319 367 14,500  Level Boston Center
Thu 06:13:27 PM 43.0150 -74.2689 316° Northwest 350 403 17,000 2,150 Climbing Boston Center
Thu 06:14:27 PM 43.0572 -74.3639 301° West 355 409 18,800 2,000 Climbing Boston Center
Thu 06:15:27 PM 43.0647 -74.5289 274° West 364 419 21,000 2,100 Climbing Boston Center
Thu 06:16:27 PM 43.0764 -74.6828 276° West 387 445 23,000 1,700 Climbing Boston Center
Thu 06:17:27 PM 43.0858 -74.8367 275° West 405 466 24,400 1,500 Climbing Boston Center
Thu 06:18:39 PM 43.0947 -75.0078 274° West 412 474 26,300 1,682 Climbing Boston Center
Thu 06:19:39 PM 43.1089 -75.1989 276° West 418 481 28,100 1,700 Climbing Boston Center
Thu 06:20:39 PM 43.1153 -75.3642 273° West 425 489 29,700 1,200 Climbing Boston Center
Thu 06:21:39 PM 43.1256 -75.5297 275° West 430 495 30,500 1,200 Climbing Boston Center
Thu 06:22:39 PM 43.1356 -75.6953 275° West 436 502 32,100 1,600 Climbing Boston Center
Thu 06:23:39 PM 43.1453 -75.8608 275° West 443 510 33,700 1,300 Climbing Boston Center
Thu 06:24:39 PM 43.1528 -76.0236 274° West 443 510 34,700 1,104 Climbing Boston Center
Thu 06:26:22 PM 43.1619 -76.2878 273° West 415 478 36,700 1,031 Climbing Cleveland Center
Thu 06:27:22 PM 43.1597 -76.4503 269° West 420 483 37,500 550 Climbing Cleveland Center
Thu 06:28:22 PM 43.1592 -76.6125 270° West 425 489 37,800 250 Climbing Cleveland Center
Thu 06:29:22 PM 43.1589 -76.7892 270° West 425 489 38,000 100 Climbing Cleveland Center
Thu 06:30:22 PM 43.1597 -76.9514 270° West 425 489 38,000  Level Cleveland Center
Thu 06:31:22 PM 43.1583 -77.1108 269° West 425 489 38,000  Level Cleveland Center
Thu 06:32:22 PM 43.1547 -77.2733 268° West 425 489 38,000  Level Cleveland Center
Thu 06:33:22 PM 43.1550 -77.4328 270° West 425 489 38,000  Level Cleveland Center
Thu 06:34:22 PM 43.1531 -77.5922 269° West 425 489 38,000  Level Cleveland Center
Thu 06:35:22 PM 43.1508 -77.7544 269° West 425 489 38,000  Level Cleveland Center
Thu 06:36:22 PM 43.1486 -77.9169 269° West 425 489 38,000  Level Cleveland Center
Thu 06:37:22 PM 43.1481 -78.0819 270° West 425 489 38,000  Level Cleveland Center
Thu 06:38:22 PM 43.1453 -78.2442 269° West 430 495 38,000  Level Cleveland Center
Thu 06:39:22 PM 43.1439 -78.3922 269° West 430 495 38,000  Level Cleveland Center
Thu 06:40:22 PM 43.1364 -78.5519 266° West 430 495 38,000 -50 Level Cleveland Center
Thu 06:41:22 PM 43.1350 -78.7114 269° West 425 489 37,900  Descending Cleveland Center
Thu 06:42:22 PM 43.1289 -78.8681 267° West 425 489 38,000 77 Climbing Cleveland Center
Thu 06:42:40 PM 43.1167 -78.9333 256° West 420 483 38,000  Level Toronto Center
Thu 06:43:40 PM 43.1167 -79.0667 270° West 410 472 38,000  Level Toronto Center
Thu 06:44:40 PM 43.1000 -79.2167 261° West 410 472 38,000  Level Toronto Center
Thu 06:45:40 PM 43.1000 -79.3833 270° West 410 472 38,000  Level Toronto Center
Thu 06:46:40 PM 43.1000 -79.5500 270° West 410 472 38,000  Level Toronto Center
Thu 06:47:40 PM 43.0833 -79.6833 260° West 410 472 38,000  Level Toronto Center
Thu 06:48:40 PM 43.0833 -79.8333 270° West 410 472 38,000  Level Toronto Center
Thu 06:49:40 PM 43.0833 -80.0000 270° West 410 472 38,000  Level Toronto Center
Thu 06:50:40 PM 43.0667 -80.1500 261° West 410 472 38,000  Level Toronto Center
Thu 06:51:40 PM 43.0667 -80.3000 270° West 410 472 38,000  Level Toronto Center
Thu 06:52:40 PM 43.0667 -80.4500 270° West 410 472 38,000  Level Toronto Center
Thu 06:53:40 PM 43.0500 -80.6167 262° West 410 472 38,000  Level Toronto Center
Thu 06:54:40 PM 43.0500 -80.7667 270° West 410 472 38,000  Level Toronto Center
Thu 06:55:40 PM 43.0333 -80.9333 262° West 410 472 38,000  Level Toronto Center
Thu 06:56:40 PM 43.0167 -81.1000 262° West 410 472 38,000  Level Toronto Center
Thu 06:57:40 PM 43.0167 -81.2333 270° West 400 460 38,000  Level Toronto Center
Thu 06:58:40 PM 43.0167 -81.3833 270° West 390 449 38,000  Level Toronto Center
Thu 06:59:40 PM 43.0167 -81.5333 270° West 380 437 38,000  Level Toronto Center
Thu 07:00:40 PM 43.0167 -81.6667 270° West 380 437 38,000 -50 Level Toronto Center
Thu 07:01:40 PM 43.0167 -81.8167 270° West 380 437 37,900  Descending Toronto Center
Thu 07:02:40 PM 43.0000 -81.9667 261° West 380 437 38,000 50 Climbing Toronto Center
Thu 07:03:40 PM 43.0000 -82.1167 270° West 390 449 38,000  Level Toronto Center
Thu 07:04:40 PM 43.0000 -82.2500 270° West 390 449 38,000 -50 Level Toronto Center
Thu 07:05:40 PM 43.0000 -82.3833 270° West 380 437 37,900 -150 Descending Toronto Center
Thu 07:06:40 PM 43.0000 -82.5500 270° West 380 437 37,700 -526 Descending Toronto Center
Thu 07:07:34 PM 43.0017 -82.6867 271° West 382 440 36,900 -1,000 Descending Cleveland Center
Thu 07:08:34 PM 42.9969 -82.8314 267° West 382 440 35,800 -2,200 Descending Cleveland Center
Thu 07:09:34 PM 42.9917 -82.9817 267° West 388 447 32,500 -1,900 Descending Cleveland Center
Thu 07:10:34 PM 42.9883 -83.1378 268° West 399 459 32,000 -250 Descending Cleveland Center
Thu 07:11:34 PM 42.9828 -83.2906 267° West 406 467 32,000  Level Cleveland Center
Thu 07:12:34 PM 42.9772 -83.4381 267° West 401 461 32,000  Level Cleveland Center
Thu 07:13:34 PM 42.9714 -83.5853 267° West 401 461 32,000  Level Cleveland Center
Thu 07:14:34 PM 42.9653 -83.7383 267° West 401 461 32,000  Level Cleveland Center
Thu 07:15:34 PM 42.9528 -83.8825 263° West 401 461 32,000  Level Cleveland Center
Thu 07:16:34 PM 42.9381 -84.0292 262° West 401 461 32,000  Level Cleveland Center
Thu 07:17:34 PM 42.9233 -84.1728 262° West 396 456 32,000  Level Cleveland Center
Thu 07:20:02 PM 42.8914 -84.5186 263° West 387 445 32,000  Level Chicago Center
Thu 07:21:04 PM 42.8761 -84.6631 262° West 385 443 32,000  Level Chicago Center
Thu 07:22:06 PM 42.8603 -84.8108 262° West 393 452 32,000  Level Chicago Center
Thu 07:23:08 PM 42.8453 -84.9594 262° West 396 456 32,000  Level Chicago Center
Thu 07:24:10 PM 42.8256 -85.1378 261° West 397 457 32,000  Level Chicago Center
Thu 07:25:12 PM 42.8094 -85.2875 262° West 398 458 32,000 -48 Level Chicago Center
Thu 07:26:14 PM 42.7933 -85.4367 262° West 399 459 31,900 -1,258 Descending Chicago Center
Thu 07:27:16 PM 42.7714 -85.5839 259° West 397 457 29,400 -2,419 Descending Chicago Center
Thu 07:28:18 PM 42.7447 -85.7297 256° West 397 457 26,900 -2,565 Descending Chicago Center
Thu 07:29:20 PM 42.7186 -85.8722 256° West 387 445 24,100 -2,565 Descending Chicago Center
Thu 07:30:22 PM 42.6928 -86.0147 256° West 386 444 21,600 -1,984 Descending Chicago Center
Thu 07:31:24 PM 42.6675 -86.1547 256° West 381 438 20,000 -774 Descending Chicago Center
Thu 07:32:26 PM 42.6358 -86.3189 255° West 374 430 20,000 -48 Level Chicago Center
Thu 07:33:28 PM 42.6097 -86.4586 256° West 380 437 19,900 -1,065 Descending Chicago Center
Thu 07:34:30 PM 42.5847 -86.5947 256° West 374 430 17,800 -2,274 Descending Chicago Center
Thu 07:35:32 PM 42.5597 -86.7322 256° West 374 430 15,200 -2,419 Descending Chicago Center
Thu 07:36:34 PM 42.5239 -86.8611 249° West 369 425 12,800 -2,032 Descending Chicago Center
Thu 07:37:36 PM 42.4914 -86.9831 250° West 345 397 11,000 -1,355 Descending Chicago Center
Thu 07:38:38 PM 42.4536 -87.1150 249° West 307 353 10,000 -968 Descending Chicago Center
Thu 07:39:40 PM 42.4267 -87.2122 249° West 279 321 9,000 -484 Descending Chicago Center
Thu 07:40:42 PM 42.4008 -87.3114 251° West 279 321 9,000 -290 Level Chicago Center
Thu 07:41:44 PM 42.3764 -87.4047 251° West 276 318 8,400 -968 Descending Chicago Center
Thu 07:42:46 PM 42.3425 -87.5114 247° West 273 314 7,000 -677 Descending Chicago Center
Thu 07:43:48 PM 42.2864 -87.5750 220° Southwest 259 298 7,000 -532 Level Chicago Center
Thu 07:44:50 PM 42.2311 -87.6369 220° Southwest 258 297 5,900 -968 Descending Chicago Center
Thu 07:45:52 PM 42.1781 -87.6958 219° Southwest 251 289 5,000 -919 Descending Chicago Center
Thu 07:46:54 PM 42.1272 -87.7519 219° Southwest 242 278 4,000 -968 Descending Chicago Center

Login

Don't have an account? Register now (free) for customized features, flight alerts, and more!